Time;durP1;ratioP1;P1;durP2;ratioP2;P2;SDS_P1;SDS_P2;PMS_P1;PMS_P2;Temp;Humidity;BMP_temperature;BMP_pressure;BME280_temperature;BME280_humidity;BME280_pressure;Samples;Min_cycle;Max_cycle;Signal;HPM_P1;HPM_P2
2022/06/15 00:01:39;;;;;;;0.93;0.93;;;24.80;46.20;;;;;;5108153;28;20051;-63
2022/06/15 00:04:07;;;;;;;0.85;0.85;;;24.70;46.20;;;;;;5108126;27;20096;-62
2022/06/15 00:06:39;;;;;;;0.80;0.80;;;24.70;46.20;;;;;;5106520;28;20086;-63
2022/06/15 00:09:07;;;;;;;0.82;0.50;;;24.70;46.30;;;;;;5108213;28;20054;-63
2022/06/15 00:11:39;;;;;;;0.82;0.70;;;24.70;46.30;;;;;;5106165;28;20063;-62
2022/06/15 00:14:20;;;;;;;1.33;1.23;;;24.70;46.30;;;;;;5107620;28;20347;-63
2022/06/15 00:16:47;;;;;;;0.88;0.88;;;24.70;46.30;;;;;;5108452;28;20036;-63
2022/06/15 00:19:15;;;;;;;0.70;0.70;;;24.70;46.40;;;;;;5107507;28;20351;-63
2022/06/15 00:21:43;;;;;;;0.70;0.70;;;24.70;46.40;;;;;;5103942;28;20043;-63
2022/06/15 00:24:10;;;;;;;0.70;0.68;;;24.70;46.40;;;;;;5106028;28;20051;-63
2022/06/15 00:26:38;;;;;;;2.05;1.15;;;24.70;46.40;;;;;;5107432;28;20272;-63
2022/06/15 00:29:06;;;;;;;0.70;0.70;;;24.70;46.40;;;;;;5107560;28;20118;-63
2022/06/15 00:31:33;;;;;;;0.80;0.80;;;24.70;46.40;;;;;;5107576;28;20327;-62
2022/06/15 00:34:01;;;;;;;0.88;0.88;;;24.70;46.50;;;;;;5106296;28;20356;-63
2022/06/15 00:36:29;;;;;;;1.02;0.90;;;24.70;46.50;;;;;;5107274;28;20048;-63
2022/06/15 00:38:59;;;;;;;1.08;1.05;;;24.70;46.60;;;;;;5107218;28;20127;-63
2022/06/15 00:41:34;;;;;;;0.70;0.70;;;24.60;46.50;;;;;;5107415;28;20090;-63
2022/06/15 00:44:30;;;;;;;2.13;0.70;;;24.70;46.60;;;;;;5107017;28;20621;-63
2022/06/15 00:47:14;;;;;;;1.02;0.82;;;24.60;46.50;;;;;;5107311;27;20058;-63
2022/06/15 00:49:55;;;;;;;0.93;0.73;;;24.60;46.60;;;;;;5107013;28;20040;-63
2022/06/15 00:52:34;;;;;;;1.33;0.80;;;24.60;46.60;;;;;;5106985;28;20075;-63
2022/06/15 00:55:06;;;;;;;0.80;0.80;;;24.60;46.70;;;;;;5106500;28;20488;-63
2022/06/15 00:57:34;;;;;;;0.85;0.85;;;24.60;46.70;;;;;;5107438;28;20323;-63
2022/06/15 01:00:03;;;;;;;0.77;0.77;;;24.60;46.70;;;;;;5105447;28;20415;-63
2022/06/15 01:02:36;;;;;;;1.27;0.60;;;24.60;46.70;;;;;;5106529;28;20051;-63
2022/06/15 01:05:18;;;;;;;0.77;0.70;;;24.60;46.70;;;;;;5107158;28;20109;-63
2022/06/15 01:08:07;;;;;;;0.73;0.73;;;24.60;46.70;;;;;;5106138;28;20082;-63
2022/06/15 01:11:03;;;;;;;0.60;0.60;;;24.60;46.70;;;;;;5106285;28;20100;-63
2022/06/15 01:14:02;;;;;;;1.67;0.80;;;24.50;46.70;;;;;;5105422;28;20119;-63
2022/06/15 01:16:52;;;;;;;0.50;0.50;;;24.60;46.80;;;;;;5105351;28;20073;-63
2022/06/15 01:19:39;;;;;;;;;;;24.60;46.80;;;;;;5106683;28;20135;-63
2022/06/15 01:22:31;;;;;;;0.98;0.65;;;24.50;46.70;;;;;;5106486;28;19961;-63
2022/06/15 01:25:36;;;;;;;0.60;0.60;;;24.60;46.90;;;;;;5105946;28;20542;-63
2022/06/15 01:28:43;;;;;;;1.20;0.93;;;24.50;46.80;;;;;;5105182;28;20197;-63
2022/06/15 01:31:26;;;;;;;0.65;0.65;;;24.50;46.80;;;;;;5103235;28;20526;-63
2022/06/15 01:34:19;;;;;;;0.70;0.70;;;24.60;46.90;;;;;;5106220;27;20083;-63
2022/06/15 01:37:01;;;;;;;0.60;0.60;;;24.50;46.90;;;;;;5106038;28;20538;-63
2022/06/15 01:39:42;;;;;;;1.48;0.65;;;24.50;46.90;;;;;;5105790;28;20048;-63
2022/06/15 01:42:25;;;;;;;0.60;0.60;;;24.50;46.90;;;;;;5106209;28;20438;-63
2022/06/15 01:45:07;;;;;;;0.65;0.65;;;24.50;46.90;;;;;;5105899;28;20047;-63
2022/06/15 01:47:37;;;;;;;0.65;0.65;;;24.50;46.90;;;;;;5106100;28;20047;-63
2022/06/15 01:50:12;;;;;;;0.77;0.77;;;24.50;46.90;;;;;;5105871;28;20680;-63
2022/06/15 01:53:02;;;;;;;0.73;0.73;;;24.50;46.90;;;;;;5106155;28;20247;-63
2022/06/15 01:55:36;;;;;;;0.60;0.60;;;24.50;47.00;;;;;;5105429;28;20312;-63
2022/06/15 01:58:08;;;;;;;0.43;0.43;;;24.50;47.00;;;;;;5106188;28;20878;-63
2022/06/15 02:00:36;;;;;;;0.60;0.60;;;24.50;47.00;;;;;;5105334;28;20049;-64
2022/06/15 02:03:41;;;;;;;0.60;0.60;;;24.50;47.00;;;;;;5106164;28;20467;-64
2022/06/15 02:06:36;;;;;;;0.90;0.60;;;24.50;47.00;;;;;;5105745;28;20319;-63
2022/06/15 02:09:15;;;;;;;0.80;0.73;;;24.50;47.10;;;;;;5104496;28;20035;-63
2022/06/15 02:11:43;;;;;;;0.40;0.40;;;24.50;47.10;;;;;;5105961;28;20169;-63
2022/06/15 02:14:42;;;;;;;0.98;0.98;;;24.50;47.10;;;;;;5105511;28;20307;-63
2022/06/15 02:17:32;;;;;;;0.77;0.77;;;24.50;47.10;;;;;;5105634;28;20126;-63
2022/06/15 02:20:07;;;;;;;0.75;0.75;;;24.50;47.10;;;;;;5104200;28;20124;-63
2022/06/15 02:22:39;;;;;;;0.85;0.60;;;24.40;47.10;;;;;;5104472;28;20047;-63
2022/06/15 02:25:12;;;;;;;0.50;0.50;;;24.50;47.10;;;;;;5105450;28;20040;-63
2022/06/15 02:27:41;;;;;;;0.88;0.88;;;24.40;47.10;;;;;;5104252;28;20108;-64
2022/06/15 02:30:17;;;;;;;0.60;0.60;;;24.40;47.10;;;;;;5091956;28;20906;-63
2022/06/15 02:32:46;;;;;;;0.80;0.80;;;24.40;47.20;;;;;;5083671;28;20071;-64
2022/06/15 02:35:14;;;;;;;2.00;0.60;;;24.40;47.20;;;;;;5085330;28;20058;-63
2022/06/15 02:37:41;;;;;;;0.50;0.50;;;24.40;47.20;;;;;;5084883;28;20068;-63
2022/06/15 02:40:10;;;;;;;0.88;0.60;;;24.50;47.30;;;;;;5084917;28;20075;-65
2022/06/15 02:42:44;;;;;;;0.43;0.43;;;24.40;47.20;;;;;;5084927;28;20068;-63
2022/06/15 02:45:22;;;;;;;1.08;0.73;;;24.40;47.30;;;;;;5084477;28;20052;-63
2022/06/15 02:47:50;;;;;;;0.50;0.50;;;24.40;47.30;;;;;;5084990;28;20044;-63
2022/06/15 02:50:20;;;;;;;0.65;0.65;;;24.40;47.20;;;;;;5085289;28;20128;-62
2022/06/15 02:53:09;;;;;;;0.60;0.60;;;24.40;47.20;;;;;;5085592;28;20135;-63
2022/06/15 02:55:37;;;;;;;0.80;0.80;;;24.40;47.30;;;;;;5085117;28;20499;-63
2022/06/15 02:58:14;;;;;;;0.82;0.82;;;24.40;47.20;;;;;;5084841;28;20056;-65
2022/06/15 03:00:41;;;;;;;0.65;0.65;;;24.50;47.30;;;;;;5085205;28;20088;-63
2022/06/15 03:03:09;;;;;;;0.73;0.73;;;24.40;47.20;;;;;;5084485;28;20566;-63
2022/06/15 03:05:36;;;;;;;1.00;0.80;;;24.40;47.80;;;;;;5084524;28;20500;-63
2022/06/15 03:08:06;;;;;;;1.85;1.10;;;24.40;47.20;;;;;;5083229;28;20532;-63
2022/06/15 03:10:34;;;;;;;0.82;0.70;;;24.40;47.20;;;;;;5083188;28;20583;-63
2022/06/15 03:13:01;;;;;;;0.93;0.65;;;24.50;47.30;;;;;;5084761;28;20077;-63
2022/06/15 03:15:28;;;;;;;0.63;0.63;;;24.40;47.20;;;;;;5084495;28;20494;-63
2022/06/15 03:17:55;;;;;;;0.57;0.57;;;24.40;47.80;;;;;;5085082;28;20108;-64
2022/06/15 03:20:22;;;;;;;1.00;1.00;;;24.50;47.30;;;;;;5084431;28;20451;-62
2022/06/15 03:22:49;;;;;;;0.60;0.60;;;24.50;47.30;;;;;;5084698;28;20067;-63
2022/06/15 03:25:17;;;;;;;0.68;0.68;;;24.50;47.30;;;;;;5085447;28;20442;-63
2022/06/15 03:27:44;;;;;;;1.50;0.45;;;24.40;47.20;;;;;;5089497;28;20093;-63
2022/06/15 03:30:12;;;;;;;1.08;0.77;;;24.50;47.30;;;;;;5091650;28;20097;-62
2022/06/15 03:32:39;;;;;;;0.80;0.60;;;24.50;47.20;;;;;;5100500;28;20497;-62
2022/06/15 03:35:09;;;;;;;0.82;0.70;;;24.50;47.10;;;;;;5094985;28;20044;-62
2022/06/15 03:37:37;;;;;;;1.35;0.82;;;24.50;47.10;;;;;;5087984;28;20078;-63
2022/06/15 03:40:08;;;;;;;0.73;0.73;;;24.50;47.10;;;;;;5091550;27;20067;-63
2022/06/15 03:42:36;;;;;;;1.17;0.70;;;24.50;47.10;;;;;;5094773;28;20143;-63
2022/06/15 03:45:04;;;;;;;0.77;0.77;;;24.50;47.10;;;;;;5089881;28;20467;-62
2022/06/15 03:47:31;;;;;;;0.50;0.50;;;24.60;47.10;;;;;;5087799;28;20090;-63
2022/06/15 03:49:58;;;;;;;0.70;0.70;;;24.60;47.00;;;;;;5087786;28;20509;-62
2022/06/15 03:52:27;;;;;;;0.60;0.60;;;24.60;47.00;;;;;;5087419;28;20044;-62
2022/06/15 03:54:54;;;;;;;0.60;0.60;;;24.60;47.00;;;;;;5087939;28;20067;-63
2022/06/15 03:57:22;;;;;;;0.70;0.70;;;24.60;46.90;;;;;;5087241;28;20075;-62
2022/06/15 03:59:50;;;;;;;0.50;0.50;;;24.60;46.90;;;;;;5087875;28;20056;-62
2022/06/15 04:02:17;;;;;;;0.60;0.60;;;24.60;46.90;;;;;;5087492;28;20048;-62
2022/06/15 04:04:44;;;;;;;1.33;1.00;;;24.70;46.90;;;;;;5087757;28;20052;-62
2022/06/15 04:09:58;;;;;;;0.80;0.80;;;24.70;46.80;;;;;;5087355;28;20079;-62
2022/06/15 04:12:32;;;;;;;0.50;0.50;;;24.70;46.80;;;;;;5088057;28;20098;-62
2022/06/15 04:14:59;;;;;;;0.60;0.60;;;24.70;46.70;;;;;;5087312;28;20134;-62
2022/06/15 04:17:27;;;;;;;0.70;0.70;;;24.70;46.60;;;;;;5092816;28;20040;-62
2022/06/15 04:22:41;;;;;;;0.77;0.77;;;24.80;46.60;;;;;;5093045;28;20315;-63
2022/06/15 04:25:08;;;;;;;0.85;0.85;;;24.80;46.50;;;;;;5098847;28;20448;-62
2022/06/15 04:27:37;;;;;;;0.52;0.50;;;24.90;46.60;;;;;;5097712;28;20561;-62
2022/06/15 04:30:04;;;;;;;0.70;0.65;;;24.80;46.40;;;;;;5097545;28;20207;-62
2022/06/15 04:32:32;;;;;;;0.80;0.75;;;24.90;46.50;;;;;;5099470;28;20047;-63
2022/06/15 04:34:59;;;;;;;0.98;0.68;;;24.90;46.40;;;;;;5087178;28;20083;-62
2022/06/15 04:37:26;;;;;;;0.60;0.60;;;24.90;46.30;;;;;;5086649;28;20052;-62
2022/06/15 04:39:53;;;;;;;1.85;0.65;;;25.00;46.30;;;;;;5086986;28;20044;-62
2022/06/15 04:42:20;;;;;;;0.50;0.50;;;25.00;46.20;;;;;;5096100;28;20048;-62
2022/06/15 04:44:47;;;;;;;0.77;0.70;;;25.00;46.10;;;;;;5105599;27;20063;-63
2022/06/15 04:47:14;;;;;;;0.55;0.55;;;25.10;46.10;;;;;;5094062;28;20071;-62
2022/06/15 04:49:41;;;;;;;0.60;0.60;;;25.10;46.00;;;;;;5095954;28;20480;-62
2022/06/15 04:52:08;;;;;;;0.52;0.47;;;25.10;45.90;;;;;;5089010;28;20056;-63
2022/06/15 04:54:35;;;;;;;0.68;0.63;;;25.10;45.80;;;;;;5087600;28;20047;-63
2022/06/15 04:57:03;;;;;;;0.50;0.50;;;25.20;45.80;;;;;;5091393;28;20126;-62
2022/06/15 04:59:30;;;;;;;0.80;0.80;;;25.20;45.70;;;;;;5096418;28;20097;-63
2022/06/15 05:01:58;;;;;;;0.52;0.52;;;25.30;45.70;;;;;;5100221;28;20043;-62
2022/06/15 05:04:25;;;;;;;0.63;0.60;;;25.20;45.60;;;;;;5090714;28;20044;-62
2022/06/15 05:06:52;;;;;;;0.75;0.75;;;25.30;45.60;;;;;;5091172;28;20070;-62
2022/06/15 05:09:20;;;;;;;0.50;0.50;;;25.40;45.50;;;;;;5097284;28;20130;-64
2022/06/15 05:11:47;;;;;;;1.90;0.75;;;25.30;45.50;;;;;;5100468;28;20127;-65
2022/06/15 05:14:14;;;;;;;1.27;1.00;;;25.20;45.40;;;;;;5099571;27;20120;-64
2022/06/15 05:16:43;;;;;;;1.00;1.00;;;25.10;45.40;;;;;;5092480;28;20044;-65
2022/06/15 05:19:11;;;;;;;6.72;1.40;;;24.90;45.50;;;;;;5096013;27;20135;-64
2022/06/15 05:21:43;;;;;;;2.67;1.35;;;24.70;45.80;;;;;;5092589;28;20052;-65
2022/06/15 05:24:11;;;;;;;4.80;2.35;;;24.50;46.10;;;;;;5086391;28;20097;-63
2022/06/15 05:26:39;;;;;;;1.38;1.33;;;24.20;46.60;;;;;;5090971;28;20076;-63
2022/06/15 05:29:06;;;;;;;2.53;1.92;;;23.90;47.30;;;;;;5085476;28;20138;-63
2022/06/15 05:31:38;;;;;;;1.77;1.58;;;23.60;47.90;;;;;;5092441;28;20448;-65
2022/06/15 05:34:06;;;;;;;4.28;1.80;;;23.20;47.90;;;;;;5092336;28;20070;-65
2022/06/15 05:36:35;;;;;;;3.00;1.50;;;22.80;47.80;;;;;;5082272;28;20107;-62
2022/06/15 05:39:04;;;;;;;1.33;1.23;;;22.50;48.10;;;;;;5087345;28;20051;-63
2022/06/15 05:41:32;;;;;;;1.85;1.40;;;22.10;48.30;;;;;;5086114;28;20093;-63
2022/06/15 05:44:01;;;;;;;2.97;1.40;;;21.80;48.40;;;;;;5082246;28;20553;-63
2022/06/15 05:46:30;;;;;;;2.67;1.70;;;21.40;49.30;;;;;;5075057;28;20067;-65
2022/06/15 05:48:59;;;;;;;3.43;1.70;;;21.10;50.20;;;;;;5077510;28;20130;-65
2022/06/15 05:51:27;;;;;;;1.98;1.58;;;20.80;50.70;;;;;;5080392;27;20300;-64
2022/06/15 05:53:54;;;;;;;2.10;1.88;;;20.60;51.30;;;;;;5083093;28;20097;-64
2022/06/15 05:56:22;;;;;;;2.40;1.90;;;20.40;51.80;;;;;;5083437;28;20112;-63
2022/06/15 05:58:50;;;;;;;6.95;3.00;;;20.30;52.30;;;;;;5083684;28;20349;-64
2022/06/15 06:01:25;;;;;;;3.85;2.67;;;20.20;53.00;;;;;;5079163;28;20114;-65
2022/06/15 06:03:53;;;;;;;3.85;2.80;;;20.00;53.50;;;;;;5082192;28;20130;-64
2022/06/15 06:06:21;;;;;;;4.38;2.53;;;19.90;54.50;;;;;;5083911;28;20055;-63
2022/06/15 06:08:49;;;;;;;8.50;2.90;;;19.80;54.60;;;;;;5082845;28;22196;-64
2022/06/15 06:11:17;;;;;;;6.07;2.80;;;19.80;54.40;;;;;;5086645;28;20086;-63
2022/06/15 06:13:45;;;;;;;4.45;3.20;;;19.70;54.80;;;;;;5089815;28;20080;-68
2022/06/15 06:16:18;;;;;;;5.90;3.75;;;19.70;55.00;;;;;;5084323;28;20223;-63
2022/06/15 06:18:47;;;;;;;6.43;3.10;;;19.60;55.30;;;;;;5088156;28;20811;-64
2022/06/15 06:21:14;;;;;;;7.75;3.47;;;19.50;55.80;;;;;;5084012;28;20477;-64
2022/06/15 06:23:41;;;;;;;7.78;3.90;;;19.50;56.00;;;;;;5083444;28;20121;-66
2022/06/15 06:26:28;;;;;;;8.25;4.13;;;19.40;55.80;;;;;;5081473;28;20047;-67
2022/06/15 06:28:57;;;;;;;9.75;3.67;;;19.40;55.60;;;;;;5081028;28;20040;-64
2022/06/15 06:31:25;;;;;;;11.85;4.88;;;19.30;56.00;;;;;;5084931;28;20496;-65
2022/06/15 06:33:53;;;;;;;6.50;3.63;;;19.30;56.00;;;;;;5084225;28;20083;-65
2022/06/15 06:36:33;;;;;;;5.10;2.42;;;19.20;56.00;;;;;;5085499;28;20052;-61
2022/06/15 06:39:04;;;;;;;8.05;4.72;;;19.20;56.00;;;;;;5088564;28;20504;-62
2022/06/15 06:41:32;;;;;;;7.20;2.38;;;19.20;56.60;;;;;;5088631;28;20566;-62
2022/06/15 06:44:04;;;;;;;3.05;2.75;;;19.20;56.30;;;;;;5090933;28;20102;-63
2022/06/15 06:46:35;;;;;;;3.45;2.70;;;19.20;56.70;;;;;;5084776;28;20056;-63
2022/06/15 06:49:07;;;;;;;4.30;2.53;;;19.20;57.10;;;;;;5084528;28;20050;-62
2022/06/15 06:51:37;;;;;;;3.05;2.00;;;19.20;57.40;;;;;;5082420;28;20060;-63
2022/06/15 06:54:06;;;;;;;2.40;2.20;;;19.30;57.60;;;;;;5084739;28;20036;-63
2022/06/15 06:56:34;;;;;;;2.63;2.13;;;19.40;57.80;;;;;;5087559;28;20071;-64
2022/06/15 06:59:04;;;;;;;5.00;2.20;;;19.40;57.60;;;;;;5085394;28;20492;-63
2022/06/15 07:01:31;;;;;;;7.38;2.70;;;19.40;57.80;;;;;;5093686;28;20047;-65
2022/06/15 07:03:58;;;;;;;7.20;2.53;;;19.50;57.90;;;;;;5084630;28;20048;-62
2022/06/15 07:06:26;;;;;;;2.13;1.92;;;19.50;57.70;;;;;;5085827;28;20072;-63
2022/06/15 07:08:53;;;;;;;6.45;2.50;;;19.60;57.80;;;;;;5092211;28;20488;-66
2022/06/15 07:11:20;;;;;;;5.05;2.30;;;19.60;57.20;;;;;;5092655;28;20547;-65
2022/06/15 07:13:48;;;;;;;6.97;2.00;;;19.70;56.80;;;;;;5091562;27;20056;-66
2022/06/15 07:16:17;;;;;;;2.83;1.88;;;19.70;56.30;;;;;;5090995;28;20086;-64
2022/06/15 07:18:46;;;;;;;4.03;1.75;;;19.80;56.30;;;;;;5086132;28;20108;-67
2022/06/15 07:21:16;;;;;;;2.28;1.63;;;19.80;56.30;;;;;;5089551;28;20560;-66
2022/06/15 07:23:45;;;;;;;3.67;2.17;;;19.70;56.40;;;;;;5088513;28;20106;-66
2022/06/15 07:26:15;;;;;;;2.28;1.70;;;19.70;56.50;;;;;;5094681;28;20496;-66
2022/06/15 07:28:45;;;;;;;1.73;1.63;;;19.70;56.10;;;;;;5085278;28;20161;-65
2022/06/15 07:31:32;;;;;;;9.98;2.20;;;19.70;56.10;;;;;;5086592;28;20059;-65
2022/06/15 07:34:00;;;;;;;2.90;1.77;;;19.80;56.10;;;;;;5095002;27;20135;-64
2022/06/15 07:36:35;;;;;;;2.60;1.60;;;19.80;56.20;;;;;;5087843;28;20047;-67
2022/06/15 07:39:04;;;;;;;3.13;1.48;;;19.80;56.10;;;;;;5089017;28;20162;-65
2022/06/15 07:41:32;;;;;;;2.22;1.60;;;19.80;56.00;;;;;;5073963;28;20097;-65
2022/06/15 07:44:00;;;;;;;2.10;1.80;;;19.80;56.20;;;;;;5091674;28;20048;-66
2022/06/15 07:46:27;;;;;;;1.60;1.50;;;19.80;56.20;;;;;;5088378;28;20055;-66
2022/06/15 07:51:51;;;;;;;2.97;1.90;;;19.90;56.30;;;;;;5086561;28;20044;-67
2022/06/15 07:54:20;;;;;;;1.40;1.30;;;19.90;56.30;;;;;;5087008;28;20783;-66
2022/06/15 07:56:49;;;;;;;1.85;1.67;;;19.90;56.20;;;;;;5085687;28;20547;-68
2022/06/15 07:59:16;;;;;;;2.90;1.73;;;20.00;56.40;;;;;;5089745;28;20097;-68
2022/06/15 08:01:45;;;;;;;1.63;1.52;;;20.00;56.20;;;;;;5092182;28;20048;-65
2022/06/15 08:04:14;;;;;;;2.05;1.85;;;20.00;56.10;;;;;;5089103;28;20044;-68
2022/06/15 08:06:43;;;;;;;2.10;1.80;;;20.00;56.10;;;;;;5093687;28;20077;-67
2022/06/15 08:09:13;;;;;;;1.23;1.05;;;20.00;56.20;;;;;;5089347;28;20907;-66
2022/06/15 08:14:31;;;;;;;1.58;1.48;;;20.00;56.10;;;;;;5088000;28;20044;-67
2022/06/15 08:17:00;;;;;;;1.70;1.60;;;20.00;56.00;;;;;;5092432;28;20079;-64
2022/06/15 08:19:31;;;;;;;3.17;1.55;;;20.00;56.10;;;;;;5084886;28;20048;-67
2022/06/15 08:21:59;;;;;;;;;;;20.00;56.50;;;;;;5087160;27;20403;-65
2022/06/15 08:24:26;;;;;;;5.05;1.38;;;20.00;56.40;;;;;;5092754;28;19923;-64
2022/06/15 08:26:53;;;;;;;1.23;1.08;;;20.10;56.40;;;;;;5089337;28;20458;-63
2022/06/15 08:29:21;;;;;;;1.90;1.65;;;20.10;56.10;;;;;;5087642;28;20393;-64
2022/06/15 08:31:48;;;;;;;1.50;1.40;;;20.20;56.00;;;;;;5082480;28;20108;-65
2022/06/15 08:34:16;;;;;;;3.35;1.83;;;20.20;55.70;;;;;;5088013;28;20047;-66
2022/06/15 08:36:43;;;;;;;4.28;1.65;;;20.20;55.60;;;;;;5092332;28;20047;-66
2022/06/15 08:39:10;;;;;;;3.05;1.50;;;20.20;56.00;;;;;;5084420;27;20079;-69
2022/06/15 08:41:55;;;;;;;1.63;1.45;;;20.20;55.40;;;;;;5093113;27;20042;-66
2022/06/15 08:44:57;;;;;;;1.58;1.25;;;20.20;55.40;;;;;;5089547;27;20401;-66
2022/06/15 08:47:58;;;;;;;1.38;1.27;;;20.20;55.30;;;;;;5086203;28;20052;-68
2022/06/15 08:50:35;;;;;;;2.45;1.33;;;20.20;55.30;;;;;;5086849;27;20040;-66
2022/06/15 08:53:41;;;;;;;1.83;1.30;;;20.20;55.20;;;;;;5101785;27;20056;-65
2022/06/15 08:56:19;;;;;;;1.40;1.30;;;20.20;55.10;;;;;;5089126;28;20495;-67
2022/06/15 08:59:02;;;;;;;1.42;1.33;;;20.30;55.10;;;;;;5098307;27;20488;-67
2022/06/15 09:01:54;;;;;;;1.88;1.55;;;20.30;55.00;;;;;;5086589;28;20131;-68
2022/06/15 09:04:50;;;;;;;1.38;1.30;;;20.30;55.10;;;;;;5085629;28;20582;-65
2022/06/15 09:07:45;;;;;;;5.10;1.30;;;20.30;55.30;;;;;;5080435;28;20389;-67
2022/06/15 09:10:48;;;;;;;1.50;1.40;;;20.40;55.20;;;;;;5084173;28;20043;-67
2022/06/15 09:13:56;;;;;;;2.15;1.50;;;20.40;55.10;;;;;;5089894;28;20492;-67
2022/06/15 09:16:39;;;;;;;1.25;1.17;;;20.40;55.00;;;;;;5080661;28;20630;-66
2022/06/15 09:19:13;;;;;;;1.92;1.60;;;20.40;54.90;;;;;;5086469;27;20039;-65
2022/06/15 09:21:54;;;;;;;2.83;1.42;;;20.40;54.60;;;;;;5086320;28;20169;-67
2022/06/15 09:24:30;;;;;;;1.48;1.33;;;20.40;54.70;;;;;;5086953;28;20047;-68
2022/06/15 09:27:02;;;;;;;2.65;1.63;;;20.40;54.80;;;;;;5087713;28;20509;-66
2022/06/15 09:29:45;;;;;;;1.40;1.30;;;20.30;55.00;;;;;;5087721;27;20142;-67
2022/06/15 09:32:18;;;;;;;1.98;1.85;;;20.30;55.30;;;;;;5089473;27;20105;-66
2022/06/15 09:35:05;;;;;;;1.27;1.20;;;20.30;55.50;;;;;;5090265;28;20058;-65
2022/06/15 09:37:39;;;;;;;1.92;1.48;;;20.20;55.50;;;;;;5088727;28;20077;-67
2022/06/15 09:40:10;;;;;;;1.52;1.42;;;20.20;55.70;;;;;;5082103;28;20040;-67
2022/06/15 09:43:02;;;;;;;1.48;1.40;;;20.20;55.90;;;;;;5081025;28;20072;-66
2022/06/15 09:45:47;;;;;;;2.10;1.55;;;20.20;55.90;;;;;;5088103;27;20048;-68
2022/06/15 09:48:29;;;;;;;1.58;1.45;;;20.20;56.10;;;;;;5092938;27;20052;-68
2022/06/15 09:51:05;;;;;;;1.40;1.30;;;20.20;56.20;;;;;;5087689;28;20101;-67
2022/06/15 09:53:59;;;;;;;1.38;1.27;;;20.20;56.10;;;;;;5089545;28;20056;-67
2022/06/15 09:56:27;;;;;;;3.58;1.70;;;20.20;56.20;;;;;;5088698;28;20537;-67
2022/06/15 09:59:04;;;;;;;1.98;1.30;;;20.20;56.00;;;;;;5086366;28;20043;-68
2022/06/15 10:01:37;;;;;;;2.72;1.50;;;20.20;55.90;;;;;;5087959;28;20043;-65
2022/06/15 10:04:06;;;;;;;1.80;1.70;;;20.10;55.90;;;;;;5088649;27;20131;-67
2022/06/15 10:06:59;;;;;;;1.65;1.55;;;20.10;56.00;;;;;;5089414;28;20058;-68
2022/06/15 10:09:29;;;;;;;3.25;2.05;;;20.10;56.10;;;;;;5093555;28;20560;-67
2022/06/15 10:15:12;;;;;;;1.95;1.63;;;20.00;56.00;;;;;;5090917;28;20127;-67
2022/06/15 10:17:46;;;;;;;1.67;1.58;;;20.00;56.10;;;;;;5087118;28;20150;-67
2022/06/15 10:20:33;;;;;;;1.75;1.65;;;19.90;56.10;;;;;;5091924;28;20047;-69
2022/06/15 10:23:06;;;;;;;1.95;1.85;;;20.00;56.30;;;;;;5088047;28;20393;-66
2022/06/15 10:25:37;;;;;;;2.10;1.52;;;19.90;56.30;;;;;;5093172;28;20093;-63
2022/06/15 10:28:15;;;;;;;1.67;1.50;;;19.90;56.30;;;;;;5087404;28;20159;-64
2022/06/15 10:30:59;;;;;;;1.63;1.30;;;20.00;56.30;;;;;;5095852;28;20044;-64
2022/06/15 10:33:47;;;;;;;2.92;1.50;;;20.00;56.30;;;;;;5089926;28;20079;-64
2022/06/15 10:36:22;;;;;;;1.73;1.63;;;20.00;56.20;;;;;;5090615;28;20047;-67
2022/06/15 10:38:57;;;;;;;1.63;1.52;;;20.00;56.20;;;;;;5088592;28;20044;-63
2022/06/15 10:41:46;;;;;;;2.08;1.88;;;20.10;56.00;;;;;;5089908;28;20068;-65
2022/06/15 10:44:24;;;;;;;1.77;1.65;;;20.10;55.80;;;;;;5089559;28;20048;-66
2022/06/15 10:47:01;;;;;;;1.60;1.50;;;20.00;56.20;;;;;;5097791;28;20052;-67
2022/06/15 10:49:32;;;;;;;2.50;2.00;;;20.00;56.10;;;;;;5091253;28;20706;-64
2022/06/15 10:52:00;;;;;;;1.38;1.23;;;20.00;55.50;;;;;;5094947;27;20100;-64
2022/06/15 11:03:21;;;;;;;1.35;1.25;;;19.90;55.00;;;;;;5101249;27;20069;-65
2022/06/15 11:05:55;;;;;;;1.63;1.52;;;19.80;55.00;;;;;;5091321;28;20446;-65
2022/06/15 11:08:29;;;;;;;1.30;1.30;;;19.80;55.00;;;;;;5092921;28;20102;-62
2022/06/15 11:11:23;;;;;;;2.13;1.45;;;19.80;55.20;;;;;;5093191;27;20497;-65
2022/06/15 11:14:03;;;;;;;2.00;1.50;;;19.80;55.90;;;;;;5089960;28;20052;-65
2022/06/15 11:19:30;;;;;;;1.80;1.70;;;19.80;56.10;;;;;;5091278;28;20094;-65
2022/06/15 11:22:08;;;;;;;1.52;1.42;;;19.80;56.30;;;;;;5096234;27;20389;-65
2022/06/15 11:24:45;;;;;;;3.40;1.50;;;19.80;56.20;;;;;;5082918;27;20078;-66
2022/06/15 11:27:29;;;;;;;4.43;1.42;;;19.80;56.50;;;;;;5076150;27;20168;-66
2022/06/15 11:30:26;;;;;;;2.97;2.17;;;19.80;57.10;;;;;;5090602;27;20069;-64
2022/06/15 11:33:29;;;;;;;1.58;1.48;;;19.90;58.70;;;;;;5099138;27;20047;-65
2022/06/15 11:36:06;;;;;;;1.50;1.38;;;20.20;56.40;;;;;;5091858;28;20510;-66
2022/06/15 11:38:45;;;;;;;1.70;1.60;;;20.30;55.70;;;;;;5096351;28;20193;-64
2022/06/15 11:41:25;;;;;;;1.63;1.52;;;20.30;55.60;;;;;;5087150;28;20044;-65
2022/06/15 11:43:55;;;;;;;1.67;1.58;;;20.20;55.50;;;;;;5094294;28;20044;-65
2022/06/15 11:46:35;;;;;;;2.60;1.45;;;20.20;56.20;;;;;;5087091;28;20387;-65
2022/06/15 11:49:43;;;;;;;1.60;1.50;;;20.20;55.90;;;;;;5091064;28;20048;-66
2022/06/15 11:52:25;;;;;;;1.63;1.50;;;20.20;55.70;;;;;;5086702;28;20051;-61
2022/06/15 11:55:08;;;;;;;1.65;1.55;;;20.10;55.70;;;;;;5085063;28;20135;-64
2022/06/15 11:58:01;;;;;;;1.88;1.58;;;20.10;55.80;;;;;;5086449;28;20044;-66
2022/06/15 12:00:38;;;;;;;1.70;1.60;;;20.20;55.90;;;;;;5085847;28;20052;-65
2022/06/15 12:03:37;;;;;;;1.75;1.60;;;20.10;56.10;;;;;;5087781;28;20064;-61
2022/06/15 12:06:25;;;;;;;2.58;1.85;;;20.10;56.00;;;;;;5087898;28;20040;-61
2022/06/15 12:09:29;;;;;;;2.03;1.70;;;20.10;56.50;;;;;;5090315;28;20047;-61
2022/06/15 12:15:25;;;;;;;2.08;1.98;;;20.10;57.30;;;;;;5086392;28;20079;-63
2022/06/15 12:18:23;;;;;;;3.05;1.70;;;20.10;57.80;;;;;;5085793;28;20056;-64
2022/06/15 12:21:04;;;;;;;2.63;1.80;;;20.20;58.10;;;;;;5090600;28;21208;-65
2022/06/15 12:23:56;;;;;;;1.80;1.70;;;20.10;58.40;;;;;;5091246;28;20093;-63
2022/06/15 12:26:45;;;;;;;1.67;1.58;;;20.20;58.30;;;;;;5088884;27;21622;-65
2022/06/15 12:29:41;;;;;;;4.68;2.05;;;20.20;58.30;;;;;;5085067;28;20044;-67
2022/06/15 12:32:33;;;;;;;1.80;1.70;;;20.30;58.60;;;;;;5085673;28;20059;-65
2022/06/15 12:35:32;;;;;;;2.22;1.83;;;20.30;58.60;;;;;;5088009;28;20047;-62
2022/06/15 12:38:21;;;;;;;1.88;1.77;;;20.40;58.40;;;;;;5082871;27;20051;-65
2022/06/15 12:44:16;;;;;;;3.78;1.63;;;20.50;58.40;;;;;;5086298;28;20047;-64
2022/06/15 12:46:45;;;;;;;1.63;1.52;;;20.50;58.40;;;;;;5085939;28;20168;-64
2022/06/15 12:49:57;;;;;;;2.97;1.75;;;20.60;58.20;;;;;;5091247;27;20043;-65
2022/06/15 12:52:36;;;;;;;1.85;1.75;;;20.60;58.10;;;;;;5087220;27;20047;-64
2022/06/15 12:55:33;;;;;;;3.92;2.58;;;20.60;58.20;;;;;;5085567;28;20100;-65
2022/06/15 12:58:40;;;;;;;2.78;1.90;;;20.60;58.30;;;;;;5087801;28;20063;-66
2022/06/15 13:01:18;;;;;;;2.78;1.77;;;20.70;58.50;;;;;;5088181;28;20404;-65
2022/06/15 13:04:25;;;;;;;1.95;1.85;;;20.70;58.70;;;;;;5090473;27;20039;-65
2022/06/15 13:07:22;;;;;;;7.07;3.22;;;20.80;58.50;;;;;;5091163;27;20131;-62
2022/06/15 13:10:11;;;;;;;15.18;4.22;;;20.80;58.20;;;;;;5090944;27;20134;-62
2022/06/15 13:12:51;;;;;;;4.85;3.15;;;20.90;58.60;;;;;;5087772;28;20455;-62
2022/06/15 13:15:47;;;;;;;5.82;3.13;;;20.90;58.60;;;;;;5089493;28;20491;-61
2022/06/15 13:18:14;;;;;;;6.70;3.08;;;20.90;58.80;;;;;;5098377;27;20045;-62
2022/06/15 13:20:59;;;;;;;4.88;3.38;;;20.90;58.90;;;;;;5088113;28;20087;-63
2022/06/15 13:23:32;;;;;;;5.82;2.95;;;21.00;59.10;;;;;;5085915;27;20070;-63
2022/06/15 13:26:07;;;;;;;5.50;2.50;;;20.90;58.70;;;;;;5088075;28;20527;-64
2022/06/15 13:28:41;;;;;;;9.02;2.40;;;20.90;58.70;;;;;;5087971;28;20075;-63
2022/06/15 13:31:14;;;;;;;3.25;2.35;;;20.90;58.80;;;;;;5088416;28;20513;-63
2022/06/15 13:34:03;;;;;;;3.92;1.90;;;20.90;58.80;;;;;;5084270;28;20544;-63
2022/06/15 13:36:30;;;;;;;3.80;2.15;;;20.90;58.90;;;;;;5087523;28;20048;-64
2022/06/15 13:38:58;;;;;;;2.78;1.77;;;20.90;58.70;;;;;;5089131;28;20425;-63
2022/06/15 13:41:30;;;;;;;2.28;2.08;;;20.90;58.70;;;;;;5086330;28;20097;-63
2022/06/15 13:44:10;;;;;;;2.50;1.90;;;20.90;59.00;;;;;;5085236;28;20047;-64
2022/06/15 13:46:42;;;;;;;5.57;1.70;;;20.90;58.90;;;;;;5085427;28;20173;-64
2022/06/15 13:49:32;;;;;;;2.38;2.00;;;20.90;59.10;;;;;;5086213;28;20132;-64
2022/06/15 13:52:07;;;;;;;2.20;1.83;;;20.90;59.70;;;;;;5085504;28;22632;-63
2022/06/15 13:55:02;;;;;;;3.83;2.53;;;20.90;59.10;;;;;;5090272;28;20097;-65
2022/06/15 13:58:01;;;;;;;2.58;1.88;;;20.90;59.40;;;;;;5092556;27;20121;-65
2022/06/15 14:00:59;;;;;;;4.28;2.25;;;20.90;59.20;;;;;;5082688;28;20109;-64
2022/06/15 14:03:53;;;;;;;2.90;1.80;;;21.00;59.30;;;;;;5084429;28;20067;-63
2022/06/15 14:06:33;;;;;;;2.42;1.75;;;21.00;59.20;;;;;;5090977;28;20105;-63